sensor_id;sensor_type;location;lat;lon;timestamp;pressure;altitude;pressure_sealevel;temperature;humidity
5595;BME280;1003;48.002;7.788;2023-03-08T00:00:02;97844.06;;;3.34;100.00
5595;BME280;1003;48.002;7.788;2023-03-08T00:02:30;97838.25;;;3.36;100.00
5595;BME280;1003;48.002;7.788;2023-03-08T00:04:57;97830.81;;;3.35;100.00
5595;BME280;1003;48.002;7.788;2023-03-08T00:07:25;97823.34;;;3.39;100.00
5595;BME280;1003;48.002;7.788;2023-03-08T00:09:52;97815.88;;;3.33;100.00
5595;BME280;1003;48.002;7.788;2023-03-08T00:12:20;97829.13;;;3.41;100.00
5595;BME280;1003;48.002;7.788;2023-03-08T00:14:48;97832.38;;;3.53;100.00
5595;BME280;1003;48.002;7.788;2023-03-08T00:17:15;97824.91;;;3.57;100.00
5595;BME280;1003;48.002;7.788;2023-03-08T00:19:43;97815.81;;;3.55;100.00
5595;BME280;1003;48.002;7.788;2023-03-08T00:22:11;97805.03;;;3.54;100.00
5595;BME280;1003;48.002;7.788;2023-03-08T00:24:38;97806.75;;;3.51;100.00
5595;BME280;1003;48.002;7.788;2023-03-08T00:27:05;97812.50;;;3.53;100.00
5595;BME280;1003;48.002;7.788;2023-03-08T00:29:33;97812.50;;;3.54;100.00
5595;BME280;1003;48.002;7.788;2023-03-08T00:32:00;97813.34;;;3.52;100.00
5595;BME280;1003;48.002;7.788;2023-03-08T00:49:11;97782.75;;;3.43;100.00
5595;BME280;1003;48.002;7.788;2023-03-08T00:51:39;97781.91;;;3.46;100.00
5595;BME280;1003;48.002;7.788;2023-03-08T00:54:06;97772.81;;;3.43;100.00
5595;BME280;1003;48.002;7.788;2023-03-08T00:56:33;97767.03;;;3.41;100.00
5595;BME280;1003;48.002;7.788;2023-03-08T00:59:00;97764.56;;;3.37;100.00
5595;BME280;1003;48.002;7.788;2023-03-08T01:01:27;97754.63;;;3.38;100.00
5595;BME280;1003;48.002;7.788;2023-03-08T01:03:54;97747.22;;;3.31;100.00
5595;BME280;1003;48.002;7.788;2023-03-08T01:06:22;97747.16;;;3.45;100.00
5595;BME280;1003;48.002;7.788;2023-03-08T01:08:49;97739.72;;;3.45;100.00
5595;BME280;1003;48.002;7.788;2023-03-08T01:11:19;97742.19;;;3.45;100.00
5595;BME280;1003;48.002;7.788;2023-03-08T01:13:48;97733.94;;;3.39;100.00
5595;BME280;1003;48.002;7.788;2023-03-08T01:16:19;97724.00;;;3.39;100.00
5595;BME280;1003;48.002;7.788;2023-03-08T01:18:47;97712.44;;;3.35;100.00
5595;BME280;1003;48.002;7.788;2023-03-08T01:21:14;97704.22;;;3.23;100.00
5595;BME280;1003;48.002;7.788;2023-03-08T01:23:43;97687.66;;;3.22;100.00
5595;BME280;1003;48.002;7.788;2023-03-08T01:26:13;97675.25;;;3.26;100.00
5595;BME280;1003;48.002;7.788;2023-03-08T01:28:41;97676.09;;;3.21;100.00
5595;BME280;1003;48.002;7.788;2023-03-08T01:31:12;97677.03;;;3.00;100.00
5595;BME280;1003;48.002;7.788;2023-03-08T01:33:40;97678.75;;;2.79;100.00
5595;BME280;1003;48.002;7.788;2023-03-08T01:36:11;97676.31;;;2.72;100.00
5595;BME280;1003;48.002;7.788;2023-03-08T01:38:40;97682.09;;;2.75;100.00
5595;BME280;1003;48.002;7.788;2023-03-08T01:41:15;97690.31;;;2.79;100.00
5595;BME280;1003;48.002;7.788;2023-03-08T01:43:42;97693.69;;;2.61;100.00
5595;BME280;1003;48.002;7.788;2023-03-08T01:46:28;97703.59;;;2.70;100.00
5595;BME280;1003;48.002;7.788;2023-03-08T01:49:03;97704.44;;;2.71;100.00
5595;BME280;1003;48.002;7.788;2023-03-08T01:51:36;97707.75;;;2.53;100.00
5595;BME280;1003;48.002;7.788;2023-03-08T01:54:10;97692.88;;;2.62;100.00
5595;BME280;1003;48.002;7.788;2023-03-08T01:56:41;97688.69;;;2.69;100.00
5595;BME280;1003;48.002;7.788;2023-03-08T01:59:11;97682.09;;;2.75;100.00
5595;BME280;1003;48.002;7.788;2023-03-08T02:01:38;97668.81;;;2.79;100.00
5595;BME280;1003;48.002;7.788;2023-03-08T02:04:07;97652.19;;;3.00;100.00
5595;BME280;1003;48.002;7.788;2023-03-08T02:06:35;97650.44;;;3.25;100.00
5595;BME280;1003;48.002;7.788;2023-03-08T02:09:02;97637.13;;;3.32;100.00
5595;BME280;1003;48.002;7.788;2023-03-08T02:11:32;97630.59;;;3.23;100.00
5595;BME280;1003;48.002;7.788;2023-03-08T02:14:01;97631.34;;;3.31;100.00
5595;BME280;1003;48.002;7.788;2023-03-08T02:16:29;97624.75;;;3.27;100.00
5595;BME280;1003;48.002;7.788;2023-03-08T02:18:59;97629.72;;;3.26;100.00
5595;BME280;1003;48.002;7.788;2023-03-08T02:21:28;97618.25;;;3.09;100.00
5595;BME280;1003;48.002;7.788;2023-03-08T02:24:04;97611.59;;;3.18;100.00
5595;BME280;1003;48.002;7.788;2023-03-08T02:26:32;97603.34;;;3.09;100.00
5595;BME280;1003;48.002;7.788;2023-03-08T02:28:59;97600.06;;;3.04;100.00
5595;BME280;1003;48.002;7.788;2023-03-08T02:31:26;97603.41;;;3.03;100.00
5595;BME280;1003;48.002;7.788;2023-03-08T02:33:53;97589.38;;;2.96;100.00
5595;BME280;1003;48.002;7.788;2023-03-08T02:36:20;97590.22;;;2.94;100.00
5595;BME280;1003;48.002;7.788;2023-03-08T02:38:47;97587.72;;;2.90;100.00
5595;BME280;1003;48.002;7.788;2023-03-08T02:41:16;97578.69;;;2.86;100.00
5595;BME280;1003;48.002;7.788;2023-03-08T02:43:43;97581.16;;;2.86;100.00
5595;BME280;1003;48.002;7.788;2023-03-08T02:46:11;97582.00;;;2.82;100.00
5595;BME280;1003;48.002;7.788;2023-03-08T02:48:38;97573.75;;;2.77;100.00
5595;BME280;1003;48.002;7.788;2023-03-08T02:51:05;97571.31;;;2.71;100.00
5595;BME280;1003;48.002;7.788;2023-03-08T02:53:32;97564.72;;;2.70;100.00
5595;BME280;1003;48.002;7.788;2023-03-08T02:55:59;97566.31;;;2.74;100.00
5595;BME280;1003;48.002;7.788;2023-03-08T02:58:27;97560.47;;;2.87;100.00
5595;BME280;1003;48.002;7.788;2023-03-08T03:00:55;97554.66;;;2.88;100.00
5595;BME280;1003;48.002;7.788;2023-03-08T03:03:22;97555.47;;;2.90;100.00
5595;BME280;1003;48.002;7.788;2023-03-08T03:05:49;97548.84;;;2.94;100.00
5595;BME280;1003;48.002;7.788;2023-03-08T03:08:17;97546.38;;;2.93;100.00
5595;BME280;1003;48.002;7.788;2023-03-08T03:10:44;97542.19;;;2.99;100.00
5595;BME280;1003;48.002;7.788;2023-03-08T03:13:11;97535.53;;;3.07;100.00
5595;BME280;1003;48.002;7.788;2023-03-08T03:15:39;97518.19;;;3.07;100.00
5595;BME280;1003;48.002;7.788;2023-03-08T03:18:06;97514.00;;;3.12;100.00
5595;BME280;1003;48.002;7.788;2023-03-08T03:20:33;97508.09;;;3.23;100.00
5595;BME280;1003;48.002;7.788;2023-03-08T03:23:00;97503.09;;;3.27;100.00
5595;BME280;1003;48.002;7.788;2023-03-08T03:25:28;97485.75;;;3.23;100.00
5595;BME280;1003;48.002;7.788;2023-03-08T03:27:55;97492.13;;;3.53;100.00
5595;BME280;1003;48.002;7.788;2023-03-08T03:30:22;97491.38;;;3.43;100.00
5595;BME280;1003;48.002;7.788;2023-03-08T03:32:51;97479.91;;;3.34;100.00
5595;BME280;1003;48.002;7.788;2023-03-08T03:35:18;97476.63;;;3.29;100.00
5595;BME280;1003;48.002;7.788;2023-03-08T03:37:45;97476.56;;;3.37;100.00
5595;BME280;1003;48.002;7.788;2023-03-08T03:40:13;97474.00;;;3.45;100.00
5595;BME280;1003;48.002;7.788;2023-03-08T03:42:40;97470.69;;;3.46;100.00
5595;BME280;1003;48.002;7.788;2023-03-08T03:45:08;97466.50;;;3.51;100.00
5595;BME280;1003;48.002;7.788;2023-03-08T03:47:35;97471.41;;;3.57;100.00
5595;BME280;1003;48.002;7.788;2023-03-08T03:50:04;97476.19;;;3.75;100.00
5595;BME280;1003;48.002;7.788;2023-03-08T03:52:31;97477.69;;;3.87;100.00
5595;BME280;1003;48.002;7.788;2023-03-08T03:54:58;97460.84;;;4.12;100.00
5595;BME280;1003;48.002;7.788;2023-03-08T03:57:25;97461.63;;;4.17;100.00
5595;BME280;1003;48.002;7.788;2023-03-08T03:59:52;97449.88;;;4.28;100.00
5595;BME280;1003;48.002;7.788;2023-03-08T04:02:19;97459.84;;;4.27;100.00
5595;BME280;1003;48.002;7.788;2023-03-08T04:04:48;97460.53;;;4.38;100.00
5595;BME280;1003;48.002;7.788;2023-03-08T04:07:16;97455.44;;;4.47;100.00
5595;BME280;1003;48.002;7.788;2023-03-08T04:09:43;97443.78;;;4.49;100.00
5595;BME280;1003;48.002;7.788;2023-03-08T04:12:12;97435.28;;;4.64;100.00
5595;BME280;1003;48.002;7.788;2023-03-08T04:14:40;97425.38;;;4.61;100.00
5595;BME280;1003;48.002;7.788;2023-03-08T04:17:07;97425.28;;;4.68;100.00
5595;BME280;1003;48.002;7.788;2023-03-08T04:19:34;97429.50;;;4.62;100.00
5595;BME280;1003;48.002;7.788;2023-03-08T04:22:01;97416.84;;;4.77;100.00
5595;BME280;1003;48.002;7.788;2023-03-08T04:24:30;97417.72;;;4.74;100.00
5595;BME280;1003;48.002;7.788;2023-03-08T04:26:57;97421.69;;;4.86;100.00
5595;BME280;1003;48.002;7.788;2023-03-08T04:29:24;97416.56;;;4.95;100.00
5595;BME280;1003;48.002;7.788;2023-03-08T04:31:51;97404.91;;;4.97;100.00
5595;BME280;1003;48.002;7.788;2023-03-08T04:34:20;97407.22;;;5.08;100.00
5595;BME280;1003;48.002;7.788;2023-03-08T04:36:47;97407.25;;;5.07;100.00
5595;BME280;1003;48.002;7.788;2023-03-08T04:39:14;97388.06;;;5.10;100.00
5595;BME280;1003;48.002;7.788;2023-03-08T04:41:43;97385.59;;;5.10;100.00
5595;BME280;1003;48.002;7.788;2023-03-08T04:44:10;97383.00;;;5.16;100.00
5595;BME280;1003;48.002;7.788;2023-03-08T04:46:37;97379.75;;;5.13;100.00
5595;BME280;1003;48.002;7.788;2023-03-08T04:49:04;97368.97;;;5.12;100.00
5595;BME280;1003;48.002;7.788;2023-03-08T04:51:31;97369.69;;;5.19;100.00
5595;BME280;1003;48.002;7.788;2023-03-08T04:53:58;97368.03;;;5.18;100.00
5595;BME280;1003;48.002;7.788;2023-03-08T04:56:25;97358.13;;;5.15;100.00
5595;BME280;1003;48.002;7.788;2023-03-08T04:58:53;97362.22;;;5.19;100.00
5595;BME280;1003;48.002;7.788;2023-03-08T05:01:22;97358.09;;;5.18;100.00
5595;BME280;1003;48.002;7.788;2023-03-08T05:03:50;97345.34;;;5.33;100.00
5595;BME280;1003;48.002;7.788;2023-03-08T05:06:18;97345.97;;;5.44;100.00
5595;BME280;1003;48.002;7.788;2023-03-08T05:08:46;97347.09;;;5.28;100.00
5595;BME280;1003;48.002;7.788;2023-03-08T05:11:17;97339.53;;;5.33;100.00
5595;BME280;1003;48.002;7.788;2023-03-08T05:13:45;97334.47;;;5.37;100.00
5595;BME280;1003;48.002;7.788;2023-03-08T05:16:14;97321.34;;;5.29;100.00
5595;BME280;1003;48.002;7.788;2023-03-08T05:18:41;97326.16;;;5.38;100.00
5595;BME280;1003;48.002;7.788;2023-03-08T05:21:16;97322.91;;;5.35;100.00
5595;BME280;1003;48.002;7.788;2023-03-08T05:23:43;97325.50;;;5.29;100.00
5595;BME280;1003;48.002;7.788;2023-03-08T05:26:14;97318.00;;;5.30;100.00
5595;BME280;1003;48.002;7.788;2023-03-08T05:28:41;97318.06;;;5.27;100.00
5595;BME280;1003;48.002;7.788;2023-03-08T05:31:13;97298.25;;;5.21;100.00
5595;BME280;1003;48.002;7.788;2023-03-08T05:33:41;97305.72;;;5.22;100.00
5595;BME280;1003;48.002;7.788;2023-03-08T05:36:13;97300.53;;;5.32;100.00
5595;BME280;1003;48.002;7.788;2023-03-08T05:38:42;97299.78;;;5.26;100.00
5595;BME280;1003;48.002;7.788;2023-03-08T05:41:14;97289.09;;;5.21;100.00
5595;BME280;1003;48.002;7.788;2023-03-08T05:43:42;97284.91;;;5.25;100.00
5595;BME280;1003;48.002;7.788;2023-03-08T05:46:14;97270.13;;;5.17;100.00
5595;BME280;1003;48.002;7.788;2023-03-08T05:48:41;97264.41;;;5.12;100.00
5595;BME280;1003;48.002;7.788;2023-03-08T05:51:11;97259.41;;;5.12;100.00
5595;BME280;1003;48.002;7.788;2023-03-08T05:53:39;97260.19;;;5.14;100.00
5595;BME280;1003;48.002;7.788;2023-03-08T05:56:09;97280.13;;;5.14;100.00
5595;BME280;1003;48.002;7.788;2023-03-08T05:58:36;97269.31;;;5.17;100.00
5595;BME280;1003;48.002;7.788;2023-03-08T06:01:12;97269.25;;;5.18;100.00
5595;BME280;1003;48.002;7.788;2023-03-08T06:03:47;97263.38;;;5.21;100.00
5595;BME280;1003;48.002;7.788;2023-03-08T06:06:15;97254.97;;;5.26;100.00
5595;BME280;1003;48.002;7.788;2023-03-08T06:08:42;97249.00;;;5.35;100.00
5595;BME280;1003;48.002;7.788;2023-03-08T06:11:10;97247.31;;;5.36;100.00
5595;BME280;1003;48.002;7.788;2023-03-08T06:13:38;97234.81;;;5.37;100.00
5595;BME280;1003;48.002;7.788;2023-03-08T06:16:06;97219.75;;;5.43;100.00
5595;BME280;1003;48.002;7.788;2023-03-08T06:18:36;97210.31;;;5.58;100.00
5595;BME280;1003;48.002;7.788;2023-03-08T06:21:09;97206.25;;;5.53;100.00
5595;BME280;1003;48.002;7.788;2023-03-08T06:23:37;97210.41;;;5.55;100.00
5595;BME280;1003;48.002;7.788;2023-03-08T06:26:06;97208.06;;;5.47;100.00
5595;BME280;1003;48.002;7.788;2023-03-08T06:28:35;97205.66;;;5.42;100.00
5595;BME280;1003;48.002;7.788;2023-03-08T06:31:11;97219.75;;;5.43;100.00
5595;BME280;1003;48.002;7.788;2023-03-08T06:33:51;97228.75;;;5.50;100.00
5595;BME280;1003;48.002;7.788;2023-03-08T06:36:20;97226.31;;;5.47;100.00
5595;BME280;1003;48.002;7.788;2023-03-08T06:38:49;97237.94;;;5.47;100.00
5595;BME280;1003;48.002;7.788;2023-03-08T06:41:18;97228.91;;;5.43;100.00
5595;BME280;1003;48.002;7.788;2023-03-08T06:43:46;97221.41;;;5.44;100.00
5595;BME280;1003;48.002;7.788;2023-03-08T06:46:16;97217.03;;;5.54;100.00
5595;BME280;1003;48.002;7.788;2023-03-08T06:48:44;97219.53;;;5.54;100.00
5595;BME280;1003;48.002;7.788;2023-03-08T06:51:12;97215.31;;;5.58;100.00
5595;BME280;1003;48.002;7.788;2023-03-08T06:53:40;97196.19;;;5.60;100.00
5595;BME280;1003;48.002;7.788;2023-03-08T06:56:11;97203.84;;;5.86;100.00
5595;BME280;1003;48.002;7.788;2023-03-08T06:58:38;97196.53;;;5.80;100.00
5595;BME280;1003;48.002;7.788;2023-03-08T07:01:06;97188.31;;;5.76;100.00
5595;BME280;1003;48.002;7.788;2023-03-08T07:03:35;97185.91;;;5.72;100.00
5595;BME280;1003;48.002;7.788;2023-03-08T07:06:06;97178.44;;;5.72;100.00
5595;BME280;1003;48.002;7.788;2023-03-08T07:08:34;97177.88;;;5.59;100.00
5595;BME280;1003;48.002;7.788;2023-03-08T07:11:03;97174.44;;;5.65;100.00
5595;BME280;1003;48.002;7.788;2023-03-08T07:13:32;97157.69;;;5.71;100.00
5595;BME280;1003;48.002;7.788;2023-03-08T07:16:05;97182.06;;;5.59;100.00
5595;BME280;1003;48.002;7.788;2023-03-08T07:18:33;97167.72;;;5.68;100.00
5595;BME280;1003;48.002;7.788;2023-03-08T07:21:00;97175.03;;;5.76;100.00
5595;BME280;1003;48.002;7.788;2023-03-08T07:23:27;97159.22;;;5.77;100.00
5595;BME280;1003;48.002;7.788;2023-03-08T07:25:54;97153.13;;;5.89;100.00
5595;BME280;1003;48.002;7.788;2023-03-08T07:28:22;97159.38;;;5.71;100.00
5595;BME280;1003;48.002;7.788;2023-03-08T07:30:51;97148.28;;;5.83;100.00
5595;BME280;1003;48.002;7.788;2023-03-08T07:33:20;97135.38;;;6.01;100.00
5595;BME280;1003;48.002;7.788;2023-03-08T07:35:47;97140.13;;;6.12;100.00
5595;BME280;1003;48.002;7.788;2023-03-08T07:38:14;97128.84;;;6.29;100.00
5595;BME280;1003;48.002;7.788;2023-03-08T07:40:42;97128.13;;;6.57;100.00
5595;BME280;1003;48.002;7.788;2023-03-08T07:43:09;97115.94;;;6.76;100.00
5595;BME280;1003;48.002;7.788;2023-03-08T07:45:38;97118.59;;;6.99;100.00
5595;BME280;1003;48.002;7.788;2023-03-08T07:48:06;97116.31;;;6.92;100.00
5595;BME280;1003;48.002;7.788;2023-03-08T07:50:34;97120.78;;;7.38;100.00
5595;BME280;1003;48.002;7.788;2023-03-08T07:53:01;97120.94;;;7.86;100.00
5595;BME280;1003;48.002;7.788;2023-03-08T07:55:29;97109.28;;;8.10;100.00
5595;BME280;1003;48.002;7.788;2023-03-08T07:57:56;97112.53;;;8.12;100.00
5595;BME280;1003;48.002;7.788;2023-03-08T08:00:24;97105.97;;;8.35;100.00
5595;BME280;1003;48.002;7.788;2023-03-08T08:02:52;97102.94;;;8.74;100.00
5595;BME280;1003;48.002;7.788;2023-03-08T08:05:20;97104.78;;;9.14;100.00
5595;BME280;1003;48.002;7.788;2023-03-08T08:07:48;97097.09;;;9.18;100.00
5595;BME280;1003;48.002;7.788;2023-03-08T08:10:16;97093.84;;;9.16;100.00
5595;BME280;1003;48.002;7.788;2023-03-08T08:12:43;97092.84;;;9.20;100.00
5595;BME280;1003;48.002;7.788;2023-03-08T08:15:10;97088.41;;;9.27;100.00
5595;BME280;1003;48.002;7.788;2023-03-08T08:17:37;97082.22;;;9.36;100.00
5595;BME280;1003;48.002;7.788;2023-03-08T08:20:07;97066.81;;;9.45;100.00
5595;BME280;1003;48.002;7.788;2023-03-08T08:22:35;97067.34;;;9.53;100.00
5595;BME280;1003;48.002;7.788;2023-03-08T08:25:03;97060.75;;;9.71;100.00
5595;BME280;1003;48.002;7.788;2023-03-08T08:27:31;97056.09;;;9.62;100.00
5595;BME280;1003;48.002;7.788;2023-03-08T08:29:58;97040.25;;;9.82;100.00
5595;BME280;1003;48.002;7.788;2023-03-08T08:32:25;97034.81;;;10.11;100.00
5595;BME280;1003;48.002;7.788;2023-03-08T08:34:52;97038.50;;;10.23;100.00
5595;BME280;1003;48.002;7.788;2023-03-08T08:37:21;97050.25;;;10.22;100.00
5595;BME280;1003;48.002;7.788;2023-03-08T08:39:48;97044.56;;;9.98;100.00
5595;BME280;1003;48.002;7.788;2023-03-08T08:42:15;97043.06;;;9.94;100.00
5595;BME280;1003;48.002;7.788;2023-03-08T08:44:42;97036.34;;;9.95;100.00
5595;BME280;1003;48.002;7.788;2023-03-08T08:47:09;97044.00;;;9.92;100.00
5595;BME280;1003;48.002;7.788;2023-03-08T08:49:36;97060.13;;;9.86;100.00
5595;BME280;1003;48.002;7.788;2023-03-08T08:52:03;97064.25;;;9.67;100.00
5595;BME280;1003;48.002;7.788;2023-03-08T08:54:32;97057.81;;;9.61;100.00
5595;BME280;1003;48.002;7.788;2023-03-08T08:56:59;97079.25;;;9.48;100.00
5595;BME280;1003;48.002;7.788;2023-03-08T08:59:26;97074.34;;;9.45;100.00
5595;BME280;1003;48.002;7.788;2023-03-08T09:01:53;97071.59;;;9.71;100.00
5595;BME280;1003;48.002;7.788;2023-03-08T09:04:20;97061.25;;;9.79;100.00
5595;BME280;1003;48.002;7.788;2023-03-08T09:06:47;97066.84;;;9.86;100.00
5595;BME280;1003;48.002;7.788;2023-03-08T09:09:16;97077.13;;;10.00;100.00
5595;BME280;1003;48.002;7.788;2023-03-08T09:11:45;97078.78;;;10.01;100.00
5595;BME280;1003;48.002;7.788;2023-03-08T09:14:13;97074.25;;;9.89;100.00
5595;BME280;1003;48.002;7.788;2023-03-08T09:16:40;97076.56;;;10.14;100.00
5595;BME280;1003;48.002;7.788;2023-03-08T09:19:07;97066.94;;;10.44;100.00
5595;BME280;1003;48.002;7.788;2023-03-08T09:21:35;97071.47;;;10.55;100.00
5595;BME280;1003;48.002;7.788;2023-03-08T09:24:05;97060.81;;;10.49;100.00
5595;BME280;1003;48.002;7.788;2023-03-08T09:26:34;97076.72;;;10.50;100.00
5595;BME280;1003;48.002;7.788;2023-03-08T09:29:03;97086.81;;;10.48;100.00
5595;BME280;1003;48.002;7.788;2023-03-08T09:31:34;97090.00;;;10.52;100.00
5595;BME280;1003;48.002;7.788;2023-03-08T09:34:01;97100.69;;;10.37;100.00
5595;BME280;1003;48.002;7.788;2023-03-08T09:36:33;97077.53;;;10.50;100.00
5595;BME280;1003;48.002;7.788;2023-03-08T09:39:01;97091.78;;;10.50;100.00
5595;BME280;1003;48.002;7.788;2023-03-08T09:41:46;97086.47;;;10.56;100.00
5595;BME280;1003;48.002;7.788;2023-03-08T09:44:45;97088.91;;;10.39;100.00
5595;BME280;1003;48.002;7.788;2023-03-08T09:47:25;97110.09;;;10.52;100.00
5595;BME280;1003;48.002;7.788;2023-03-08T09:50:01;97102.97;;;10.62;100.00
5595;BME280;1003;48.002;7.788;2023-03-08T09:52:34;97103.53;;;10.68;100.00
5595;BME280;1003;48.002;7.788;2023-03-08T09:55:12;97102.59;;;10.71;100.00
5595;BME280;1003;48.002;7.788;2023-03-08T09:57:48;97115.75;;;10.95;100.00
5595;BME280;1003;48.002;7.788;2023-03-08T10:00:22;97108.41;;;11.09;100.00
5595;BME280;1003;48.002;7.788;2023-03-08T10:03:10;97099.81;;;11.32;100.00
5595;BME280;1003;48.002;7.788;2023-03-08T10:05:46;97108.94;;;11.52;100.00
5595;BME280;1003;48.002;7.788;2023-03-08T10:08:21;97102.84;;;11.56;100.00
5595;BME280;1003;48.002;7.788;2023-03-08T10:10:56;97109.09;;;11.83;100.00
5595;BME280;1003;48.002;7.788;2023-03-08T10:13:30;97131.09;;;11.97;100.00
5595;BME280;1003;48.002;7.788;2023-03-08T10:16:12;97125.53;;;12.08;100.00
5595;BME280;1003;48.002;7.788;2023-03-08T10:18:46;97127.19;;;11.92;100.00
5595;BME280;1003;48.002;7.788;2023-03-08T10:21:18;97130.91;;;12.35;100.00
5595;BME280;1003;48.002;7.788;2023-03-08T10:23:51;97126.31;;;12.59;100.00
5595;BME280;1003;48.002;7.788;2023-03-08T10:26:24;97121.72;;;12.67;100.00
5595;BME280;1003;48.002;7.788;2023-03-08T10:28:52;97127.75;;;12.65;100.00
5595;BME280;1003;48.002;7.788;2023-03-08T10:31:24;97132.97;;;12.77;100.00
5595;BME280;1003;48.002;7.788;2023-03-08T10:34:01;97125.00;;;13.01;100.00
5595;BME280;1003;48.002;7.788;2023-03-08T10:36:28;97136.19;;;12.79;100.00
5595;BME280;1003;48.002;7.788;2023-03-08T10:39:00;97134.50;;;12.96;100.00
5595;BME280;1003;48.002;7.788;2023-03-08T10:41:28;97120.84;;;13.16;100.00
5595;BME280;1003;48.002;7.788;2023-03-08T10:43:58;97119.78;;;12.88;100.00
5595;BME280;1003;48.002;7.788;2023-03-08T10:46:28;97137.50;;;12.71;100.00
5595;BME280;1003;48.002;7.788;2023-03-08T10:49:07;97138.13;;;12.58;100.00
5595;BME280;1003;48.002;7.788;2023-03-08T10:51:35;97135.47;;;12.77;100.00
5595;BME280;1003;48.002;7.788;2023-03-08T10:54:04;97137.78;;;12.49;100.00
5595;BME280;1003;48.002;7.788;2023-03-08T10:56:36;97144.41;;;12.67;100.00
5595;BME280;1003;48.002;7.788;2023-03-08T10:59:12;97147.19;;;12.45;100.00
5595;BME280;1003;48.002;7.788;2023-03-08T11:01:50;97156.59;;;12.42;100.00
5595;BME280;1003;48.002;7.788;2023-03-08T11:04:20;97168.88;;;12.48;100.00
5595;BME280;1003;48.002;7.788;2023-03-08T11:06:48;97167.44;;;12.44;100.00
5595;BME280;1003;48.002;7.788;2023-03-08T11:09:23;97181.00;;;12.74;100.00
5595;BME280;1003;48.002;7.788;2023-03-08T11:11:51;97174.06;;;12.62;100.00
5595;BME280;1003;48.002;7.788;2023-03-08T11:14:18;97186.31;;;12.35;100.00
5595;BME280;1003;48.002;7.788;2023-03-08T11:17:00;97184.25;;;12.26;100.00
5595;BME280;1003;48.002;7.788;2023-03-08T11:19:47;97197.59;;;12.28;100.00
5595;BME280;1003;48.002;7.788;2023-03-08T11:22:32;97194.84;;;12.50;100.00
5595;BME280;1003;48.002;7.788;2023-03-08T11:25:16;97199.13;;;12.65;100.00
5595;BME280;1003;48.002;7.788;2023-03-08T11:28:00;97198.19;;;12.33;100.00
5595;BME280;1003;48.002;7.788;2023-03-08T11:30:42;97205.28;;;12.25;100.00
5595;BME280;1003;48.002;7.788;2023-03-08T11:33:36;97192.47;;;12.29;100.00
5595;BME280;1003;48.002;7.788;2023-03-08T11:36:10;97221.59;;;12.35;100.00
5595;BME280;1003;48.002;7.788;2023-03-08T11:38:39;97224.25;;;12.49;100.00
5595;BME280;1003;48.002;7.788;2023-03-08T11:41:18;97234.06;;;12.88;100.00
5595;BME280;1003;48.002;7.788;2023-03-08T11:44:15;97214.78;;;13.36;100.00
5595;BME280;1003;48.002;7.788;2023-03-08T11:49:56;97199.97;;;13.30;100.00
5595;BME280;1003;48.002;7.788;2023-03-08T11:52:39;97200.38;;;13.38;100.00
5595;BME280;1003;48.002;7.788;2023-03-08T11:55:32;97195.97;;;13.58;100.00
5595;BME280;1003;48.002;7.788;2023-03-08T11:58:11;97188.25;;;13.91;100.00
5595;BME280;1003;48.002;7.788;2023-03-08T12:00:42;97178.47;;;14.01;100.00
5595;BME280;1003;48.002;7.788;2023-03-08T12:03:16;97164.16;;;13.85;100.00
5595;BME280;1003;48.002;7.788;2023-03-08T12:05:50;97152.47;;;13.99;100.00
5595;BME280;1003;48.002;7.788;2023-03-08T12:08:23;97161.84;;;14.41;100.00
5595;BME280;1003;48.002;7.788;2023-03-08T12:10:56;97144.34;;;14.52;100.00
5595;BME280;1003;48.002;7.788;2023-03-08T12:13:33;97143.38;;;14.69;100.00
5595;BME280;1003;48.002;7.788;2023-03-08T12:16:09;97137.66;;;14.94;100.00
5595;BME280;1003;48.002;7.788;2023-03-08T12:18:44;97125.00;;;14.94;100.00
5595;BME280;1003;48.002;7.788;2023-03-08T12:21:23;97118.59;;;15.03;100.00
5595;BME280;1003;48.002;7.788;2023-03-08T12:24:12;97101.19;;;15.11;100.00
5595;BME280;1003;48.002;7.788;2023-03-08T12:26:48;97099.31;;;15.14;100.00
5595;BME280;1003;48.002;7.788;2023-03-08T12:29:25;97103.19;;;15.06;100.00
5595;BME280;1003;48.002;7.788;2023-03-08T12:31:56;97095.34;;;15.10;100.00
5595;BME280;1003;48.002;7.788;2023-03-08T12:34:28;97098.41;;;15.15;100.00
5595;BME280;1003;48.002;7.788;2023-03-08T12:36:57;97092.00;;;14.54;100.00
5595;BME280;1003;48.002;7.788;2023-03-08T12:39:28;97099.97;;;14.48;100.00
5595;BME280;1003;48.002;7.788;2023-03-08T12:42:12;97100.31;;;14.56;100.00
5595;BME280;1003;48.002;7.788;2023-03-08T12:44:40;97098.38;;;14.45;100.00
5595;BME280;1003;48.002;7.788;2023-03-08T12:47:20;97095.63;;;14.50;100.00
5595;BME280;1003;48.002;7.788;2023-03-08T12:49:52;97099.13;;;14.76;100.00
5595;BME280;1003;48.002;7.788;2023-03-08T12:52:31;97097.50;;;14.75;100.00
5595;BME280;1003;48.002;7.788;2023-03-08T12:55:04;97098.25;;;14.49;100.00
5595;BME280;1003;48.002;7.788;2023-03-08T12:57:38;97093.53;;;14.42;100.00
5595;BME280;1003;48.002;7.788;2023-03-08T13:00:25;97085.47;;;14.36;100.00
5595;BME280;1003;48.002;7.788;2023-03-08T13:03:03;97092.34;;;14.05;100.00
5595;BME280;1003;48.002;7.788;2023-03-08T13:05:34;97107.84;;;14.13;100.00
5595;BME280;1003;48.002;7.788;2023-03-08T13:08:17;97104.34;;;14.30;100.00
5595;BME280;1003;48.002;7.788;2023-03-08T13:11:03;97094.41;;;14.41;100.00
5595;BME280;1003;48.002;7.788;2023-03-08T13:13:46;97098.31;;;14.33;100.00
5595;BME280;1003;48.002;7.788;2023-03-08T13:16:31;97077.66;;;14.26;100.00
5595;BME280;1003;48.002;7.788;2023-03-08T13:19:16;97093.34;;;14.45;100.00
5595;BME280;1003;48.002;7.788;2023-03-08T13:21:49;97080.34;;;14.37;100.00
5595;BME280;1003;48.002;7.788;2023-03-08T13:24:35;97072.66;;;14.39;100.00
5595;BME280;1003;48.002;7.788;2023-03-08T13:27:32;97072.50;;;14.28;100.00
5595;BME280;1003;48.002;7.788;2023-03-08T13:30:22;97068.25;;;14.42;100.00
5595;BME280;1003;48.002;7.788;2023-03-08T13:32:51;97064.81;;;14.72;100.00
5595;BME280;1003;48.002;7.788;2023-03-08T13:35:18;97048.81;;;14.72;100.00
5595;BME280;1003;48.002;7.788;2023-03-08T13:37:53;97060.78;;;14.96;100.00
5595;BME280;1003;48.002;7.788;2023-03-08T13:40:23;97044.41;;;14.75;100.00
5595;BME280;1003;48.002;7.788;2023-03-08T13:42:56;97031.09;;;14.86;100.00
5595;BME280;1003;48.002;7.788;2023-03-08T13:45:25;97033.22;;;14.65;100.00
5595;BME280;1003;48.002;7.788;2023-03-08T13:47:54;97028.44;;;14.75;100.00
5595;BME280;1003;48.002;7.788;2023-03-08T13:50:28;97028.03;;;14.81;100.00
5595;BME280;1003;48.002;7.788;2023-03-08T13:52:57;97014.59;;;14.80;100.00